Time;durP1;ratioP1;P1;durP2;ratioP2;P2;SDS_P1;SDS_P2;PMS_P1;PMS_P2;Temp;Humidity;BMP_temperature;BMP_pressure;BME280_temperature;BME280_humidity;BME280_pressure;Samples;Min_cycle;Max_cycle;Signal;HPM_P1;HPM_P2
2022/08/13 00:00:28;;;;;;;7.00;5.50;;;;;;;29.01;38.03;100568.55;104515;1309;61619;-81
2022/08/13 00:02:56;;;;;;;6.40;5.50;;;;;;;29.01;38.09;100563.31;104491;1308;61173;-81
2022/08/13 00:05:24;;;;;;;6.40;5.30;;;;;;;29.02;38.02;100563.11;104607;1309;72504;-81
2022/08/13 00:07:50;;;;;;;7.90;5.70;;;;;;;29.02;38.01;100561.82;104413;1309;75778;-82
2022/08/13 00:10:32;;;;;;;6.60;5.50;;;;;;;29.01;38.07;100558.26;104447;1309;61394;-82
2022/08/13 00:12:57;;;;;;;7.20;5.70;;;;;;;29.01;38.01;100558.25;104524;1308;61196;-82
2022/08/13 00:15:28;;;;;;;6.70;5.90;;;;;;;29.01;37.87;100555.77;104592;1309;61323;-81
2022/08/13 00:17:59;;;;;;;6.70;5.50;;;;;;;29.01;37.85;100556.49;104597;1308;75692;-82
2022/08/13 00:20:27;;;;;;;6.80;5.70;;;;;;;29.01;38.09;100555.77;104513;1309;61365;-82
2022/08/13 00:22:55;;;;;;;6.90;5.90;;;;;;;29.01;37.97;100555.10;104472;1309;61697;-82
2022/08/13 00:25:20;;;;;;;7.40;6.10;;;;;;;29.01;38.27;100553.80;104504;1309;73822;-81
2022/08/13 00:28:00;;;;;;;;;;;;;;;;;;;;;
2022/08/13 00:30:31;;;;;;;6.40;5.70;;;;;;;29.00;38.16;100549.31;104588;1307;61391;-82
2022/08/13 00:33:12;;;;;;;7.60;5.90;;;;;;;29.00;38.23;100546.39;104619;1309;61264;-82
2022/08/13 00:35:42;;;;;;;8.10;5.60;;;;;;;29.00;37.93;100548.43;104602;1309;72760;-81
2022/08/13 00:38:13;;;;;;;7.20;5.70;;;;;;;29.00;38.00;100551.36;104532;1309;75180;-81
2022/08/13 00:40:52;;;;;;;6.50;5.70;;;;;;;29.00;38.08;100549.50;104557;1309;61295;-83
2022/08/13 00:43:17;;;;;;;6.70;5.80;;;;;;;29.00;38.08;100549.86;104505;1309;61736;-82
2022/08/13 00:45:43;;;;;;;7.30;5.90;;;;;;;29.00;38.00;100545.76;104531;1309;60118;-82
2022/08/13 00:50:56;;;;;;;6.80;5.60;;;;;;;29.00;37.93;100548.10;104535;1307;61173;-82
2022/08/13 00:53:24;;;;;;;;;;;;;;;29.00;38.04;100543.95;104525;1309;61250;-82
2022/08/13 00:55:53;;;;;;;6.90;5.60;;;;;;;28.98;38.19;100545.66;104586;1309;73842;-82
2022/08/13 00:58:19;;;;;;;;;;;;;;;28.98;38.14;100545.24;104582;1309;74759;-82
2022/08/13 01:00:51;;;;;;;6.70;5.90;;;;;;;28.96;38.05;100537.96;104513;1309;61193;-81
2022/08/13 01:03:17;;;;;;;6.40;5.50;;;;;;;28.97;38.14;100537.05;104415;1309;62598;-82
2022/08/13 01:05:45;;;;;;;8.00;6.10;;;;;;;28.97;38.14;100533.59;104430;1309;61262;-84
2022/08/13 01:08:11;;;;;;;7.60;6.00;;;;;;;28.97;38.29;100536.84;104580;1309;75244;-83
2022/08/13 01:10:40;;;;;;;6.40;5.30;;;;;;;28.97;38.21;100541.36;104477;1309;61803;-83
2022/08/13 01:13:09;;;;;;;;;;;;;;;28.97;38.22;100541.91;104485;1309;61282;-83
2022/08/13 01:15:36;;;;;;;6.90;5.50;;;;;;;28.95;38.21;100543.23;104511;1309;73807;-83
2022/08/13 01:18:03;;;;;;;6.70;5.70;;;;;;;28.95;38.09;100544.77;104502;1308;75806;-83
2022/08/13 01:20:28;;;;;;;7.00;5.90;;;;;;;28.96;38.25;100542.58;104613;1307;61254;-83
2022/08/13 01:22:55;;;;;;;6.70;5.50;;;;;;;28.96;38.50;100540.21;104526;1309;61399;-83
2022/08/13 01:25:21;;;;;;;7.00;6.20;;;;;;;28.96;38.19;100541.84;104512;1309;61991;-83
2022/08/13 01:27:50;;;;;;;7.10;5.80;;;;;;;28.96;38.37;100538.88;104452;1312;61471;-83
2022/08/13 01:30:16;;;;;;;;;;;;;;;28.97;38.41;100537.42;104523;1309;61465;-83
2022/08/13 01:32:42;;;;;;;7.00;5.60;;;;;;;28.93;38.29;100531.21;104553;1309;61248;-83
2022/08/13 01:35:08;;;;;;;6.40;5.40;;;;;;;28.94;38.44;100526.92;104589;1309;61193;-80
2022/08/13 01:37:34;;;;;;;6.40;5.60;;;;;;;28.95;38.43;100522.04;104485;1309;61346;-81
2022/08/13 01:40:01;;;;;;;6.70;5.60;;;;;;;28.95;38.31;100525.47;104523;1309;61279;-82
2022/08/13 01:42:26;;;;;;;6.30;5.40;;;;;;;28.95;38.19;100518.70;104479;1309;61397;-84
2022/08/13 01:44:52;;;;;;;7.20;5.70;;;;;;;28.95;38.14;100519.83;104525;1309;61291;-82
2022/08/13 01:50:31;;;;;;;6.70;5.80;;;;;;;28.95;38.58;100515.61;104305;1310;75199;-81
2022/08/13 01:53:07;;;;;;;6.60;5.20;;;;;;;28.95;38.40;100516.71;104495;1308;61377;-81
2022/08/13 01:55:41;;;;;;;7.60;5.90;;;;;;;28.96;38.36;100517.39;104606;1309;61313;-82
2022/08/13 01:58:08;;;;;;;8.10;5.90;;;;;;;28.96;38.47;100513.23;104661;1309;72704;-80
2022/08/13 02:00:35;;;;;;;7.10;5.80;;;;;;;28.96;38.31;100513.41;104491;1309;74779;-81
2022/08/13 02:03:04;;;;;;;6.80;5.80;;;;;;;28.96;38.62;100507.98;104555;1309;61081;-82
2022/08/13 02:05:30;;;;;;;7.20;5.80;;;;;;;28.96;38.43;100508.52;104544;1309;61323;-81
2022/08/13 02:07:57;;;;;;;6.60;5.60;;;;;;;28.96;38.55;100502.75;104541;1307;73801;-81
2022/08/13 02:10:23;;;;;;;6.60;5.60;;;;;;;28.96;38.42;100501.66;104541;1309;61257;-81
2022/08/13 02:12:49;;;;;;;7.40;5.90;;;;;;;28.96;38.35;100502.17;104621;1309;61259;-81
2022/08/13 02:15:15;;;;;;;7.00;5.70;;;;;;;28.96;38.75;100502.91;104455;1309;61464;-82
2022/08/13 02:17:41;;;;;;;7.20;5.60;;;;;;;28.96;38.54;100500.54;104504;1309;61278;-82
2022/08/13 02:20:11;;;;;;;6.60;5.50;;;;;;;28.96;38.57;100496.73;104429;1309;61259;-81
2022/08/13 02:22:37;;;;;;;7.60;5.90;;;;;;;28.96;38.47;100498.23;104475;1309;61291;-81
2022/08/13 02:25:03;;;;;;;8.30;6.40;;;;;;;28.96;38.56;100494.92;104500;1308;61316;-82
2022/08/13 02:27:29;;;;;;;7.20;6.10;;;;;;;28.96;38.54;100493.48;104648;1308;61276;-82
2022/08/13 02:29:55;;;;;;;6.60;5.70;;;;;;;28.96;38.48;100492.96;104453;1309;61351;-81
2022/08/13 02:32:23;;;;;;;7.10;6.10;;;;;;;28.95;38.72;100492.32;104395;1309;61329;-81
2022/08/13 02:34:50;;;;;;;6.80;6.00;;;;;;;28.95;38.59;100487.56;104640;1307;61317;-81
2022/08/13 02:37:16;;;;;;;7.10;5.90;;;;;;;28.95;38.54;100492.28;104513;1308;61340;-81
2022/08/13 02:39:43;;;;;;;7.40;5.80;;;;;;;28.95;38.68;100491.20;104597;1307;61508;-80
2022/08/13 02:42:09;;;;;;;7.20;6.10;;;;;;;28.95;38.68;100489.77;104498;1309;61299;-82
2022/08/13 02:44:35;;;;;;;7.10;5.70;;;;;;;28.95;38.46;100491.95;104497;1309;61303;-83
2022/08/13 02:47:04;;;;;;;7.20;5.50;;;;;;;28.95;38.47;100488.27;104494;1307;61365;-83
2022/08/13 02:49:31;;;;;;;7.20;5.80;;;;;;;28.95;38.40;100490.35;104516;1309;75864;-82
2022/08/13 02:51:59;;;;;;;7.60;6.30;;;;;;;28.95;38.59;100488.52;104487;1309;61288;-83
2022/08/13 02:54:25;;;;;;;7.00;5.90;;;;;;;28.95;38.52;100489.23;104573;1308;61503;-83
2022/08/13 02:56:50;;;;;;;7.20;5.80;;;;;;;28.95;38.84;100486.89;104540;1308;61236;-83
2022/08/13 02:59:16;;;;;;;7.50;6.00;;;;;;;28.94;38.59;100480.77;104584;1309;61375;-82
2022/08/13 03:01:42;;;;;;;8.40;6.10;;;;;;;28.95;38.72;100482.58;104597;1309;61282;-82
2022/08/13 03:04:07;;;;;;;7.70;5.80;;;;;;;28.94;38.61;100479.89;102519;1309;2662732;-81
2022/08/13 03:06:34;;;;;;;7.10;5.60;;;;;;;28.94;38.64;100479.68;104463;1309;61288;-81
2022/08/13 03:09:01;;;;;;;7.90;5.80;;;;;;;28.93;38.65;100476.16;104517;1309;61142;-81
2022/08/13 03:11:29;;;;;;;6.80;6.00;;;;;;;28.94;38.82;100477.38;104549;1308;75741;-81
2022/08/13 03:14:12;;;;;;;7.00;6.20;;;;;;;28.94;38.66;100479.02;104529;1309;61147;-81
2022/08/13 03:16:39;;;;;;;6.30;5.40;;;;;;;28.93;38.54;100475.80;104529;1309;61311;-82
2022/08/13 03:19:05;;;;;;;6.90;5.50;;;;;;;28.94;38.69;100475.38;104516;1309;72806;-81
2022/08/13 03:21:36;;;;;;;7.30;6.30;;;;;;;28.93;38.86;100474.91;104459;1309;62493;-83
2022/08/13 03:24:03;;;;;;;7.30;6.00;;;;;;;28.94;38.67;100475.38;104498;1309;61145;-83
2022/08/13 03:26:31;;;;;;;7.10;5.80;;;;;;;28.94;38.53;100474.49;104669;1309;61160;-82
2022/08/13 03:28:58;;;;;;;7.50;6.40;;;;;;;28.94;38.56;100475.95;104514;1309;72880;-81
2022/08/13 03:31:24;;;;;;;6.40;5.70;;;;;;;28.93;38.83;100475.79;104409;1309;74605;-82
2022/08/13 03:33:53;;;;;;;7.10;6.00;;;;;;;28.93;38.74;100478.70;104528;1308;61302;-82
2022/08/13 03:36:20;;;;;;;7.40;6.00;;;;;;;28.93;38.79;100484.11;104426;1309;62584;-82
2022/08/13 03:38:46;;;;;;;7.80;5.90;;;;;;;28.94;38.68;100480.84;104694;1309;73582;-82
2022/08/13 03:41:14;;;;;;;6.90;6.20;;;;;;;28.94;38.74;100484.27;104562;1309;61291;-82
2022/08/13 03:43:45;;;;;;;7.70;6.10;;;;;;;28.94;38.62;100486.59;104758;1308;61259;-82
2022/08/13 03:46:12;;;;;;;7.40;6.10;;;;;;;28.94;38.82;100490.18;104558;1309;61501;-81
2022/08/13 03:48:39;;;;;;;7.60;5.90;;;;;;;28.95;38.75;100485.29;104601;1309;73891;-81
2022/08/13 03:51:06;;;;;;;7.60;6.10;;;;;;;28.94;38.89;100488.01;104612;1307;61403;-81
2022/08/13 03:53:31;;;;;;;7.10;6.00;;;;;;;28.96;38.62;100490.23;104563;1309;61201;-81
2022/08/13 03:55:58;;;;;;;8.20;5.70;;;;;;;28.95;38.94;100492.84;104596;1309;61397;-81
2022/08/13 03:58:26;;;;;;;7.10;6.10;;;;;;;28.96;38.90;100493.81;104584;1309;61440;-81
2022/08/13 04:00:51;;;;;;;7.90;6.30;;;;;;;28.96;38.86;100493.79;104463;1309;76006;-81
2022/08/13 04:03:22;;;;;;;6.50;5.80;;;;;;;28.97;38.74;100494.30;104590;1309;61251;-82
2022/08/13 04:05:53;;;;;;;7.80;6.30;;;;;;;28.96;38.93;100497.03;104500;1308;62049;-81
2022/08/13 04:08:20;;;;;;;6.90;6.00;;;;;;;28.97;38.94;100494.80;104508;1309;73810;-81
2022/08/13 04:10:46;;;;;;;7.10;5.90;;;;;;;28.96;38.66;100499.42;104513;1308;75516;-81
2022/08/13 04:13:12;;;;;;;8.40;6.20;;;;;;;28.96;38.88;100499.58;104530;1309;61787;-80
2022/08/13 04:15:42;;;;;;;9.00;6.50;;;;;;;28.96;38.93;100501.56;104530;1308;61378;-81
2022/08/13 04:18:12;;;;;;;7.50;6.10;;;;;;;28.96;38.84;100495.27;104460;1309;74272;-81
2022/08/13 04:20:39;;;;;;;7.50;6.00;;;;;;;28.97;38.75;100495.05;104613;1309;74690;-82
2022/08/13 04:23:09;;;;;;;8.00;6.60;;;;;;;28.96;38.93;100497.98;104475;1309;61263;-81
2022/08/13 04:25:35;;;;;;;7.50;6.10;;;;;;;28.96;38.91;100496.70;104615;1308;61268;-82
2022/08/13 04:28:01;;;;;;;7.30;6.10;;;;;;;28.96;38.81;100503.26;104517;1309;61342;-81
2022/08/13 04:30:27;;;;;;;6.80;5.80;;;;;;;28.96;38.69;100498.40;104586;1308;61899;-81
2022/08/13 04:32:53;;;;;;;6.70;5.80;;;;;;;28.96;38.87;100497.86;104489;1309;61401;-81
2022/08/13 04:35:19;;;;;;;8.00;6.10;;;;;;;28.96;38.73;100496.73;104537;1309;61309;-81
2022/08/13 04:37:44;;;;;;;7.20;6.20;;;;;;;28.96;38.78;100501.09;104482;1309;61172;-82
2022/08/13 04:40:11;;;;;;;6.80;5.90;;;;;;;28.95;38.91;100495.52;104476;1309;61237;-82
2022/08/13 04:42:49;;;;;;;7.20;6.10;;;;;;;28.95;38.78;100498.25;104504;1309;61489;-81
2022/08/13 04:45:14;;;;;;;8.10;6.40;;;;;;;28.96;38.97;100500.40;104479;1309;61281;-81
2022/08/13 04:47:41;;;;;;;7.00;5.90;;;;;;;28.96;38.94;100504.92;104592;1308;61941;-81
2022/08/13 04:50:09;;;;;;;7.60;6.10;;;;;;;28.96;38.90;100503.25;104459;1309;61248;-81
2022/08/13 04:52:34;;;;;;;6.60;5.90;;;;;;;28.96;38.86;100500.34;104476;1309;61177;-81
2022/08/13 04:55:02;;;;;;;7.60;5.80;;;;;;;28.96;38.98;100499.29;104670;1308;61239;-81
2022/08/13 04:57:28;;;;;;;7.70;6.20;;;;;;;28.96;38.72;100500.70;104526;1308;73613;-81
2022/08/13 04:59:55;;;;;;;7.70;5.80;;;;;;;28.96;38.70;100497.98;104630;1307;61777;-82
2022/08/13 05:02:21;;;;;;;6.90;6.00;;;;;;;28.96;38.99;100497.41;104458;1309;61346;-82
2022/08/13 05:04:48;;;;;;;7.50;6.10;;;;;;;28.96;38.65;100498.67;104473;1309;61158;-80
2022/08/13 05:07:15;;;;;;;7.00;6.20;;;;;;;28.97;39.00;100496.26;104488;1309;61275;-82
2022/08/13 05:09:41;;;;;;;8.30;6.20;;;;;;;28.97;39.02;100498.39;104428;1309;75745;-82
2022/08/13 05:12:07;;;;;;;6.70;5.70;;;;;;;28.97;38.69;100497.11;104606;1308;61232;-82
2022/08/13 05:14:34;;;;;;;7.60;6.00;;;;;;;28.98;38.89;100496.70;104538;1309;61304;-82
2022/08/13 05:17:05;;;;;;;7.40;5.90;;;;;;;28.98;38.89;100497.80;104548;1308;61249;-80
2022/08/13 05:19:32;;;;;;;6.40;5.80;;;;;;;28.98;38.74;100494.29;104626;1309;74887;-82
2022/08/13 05:21:57;;;;;;;8.00;6.30;;;;;;;28.99;38.73;100492.80;104411;1308;61381;-82
2022/08/13 05:24:23;;;;;;;8.70;7.30;;;;;;;28.99;38.79;100494.16;104496;1309;61269;-82
2022/08/13 05:26:48;;;;;;;7.60;6.50;;;;;;;29.00;38.82;100493.95;104487;1309;61416;-81
2022/08/13 05:29:14;;;;;;;7.70;6.30;;;;;;;29.01;38.91;100496.16;104493;1309;61262;-81
2022/08/13 05:31:40;;;;;;;7.40;6.00;;;;;;;29.01;39.04;100490.48;104466;1308;62897;-82
2022/08/13 05:34:06;;;;;;;7.50;5.90;;;;;;;29.02;39.20;100491.38;104515;1309;61304;-82
2022/08/13 05:36:35;;;;;;;6.80;5.60;;;;;;;29.03;39.26;100493.38;104514;1309;61439;-82
2022/08/13 05:39:05;;;;;;;7.80;6.50;;;;;;;29.03;39.35;100488.32;104610;1308;73694;-83
2022/08/13 05:41:30;;;;;;;7.80;6.40;;;;;;;29.04;39.23;100488.92;104511;1309;75521;-83
2022/08/13 05:43:56;;;;;;;7.90;6.80;;;;;;;29.05;39.31;100486.11;104602;1307;61298;-81
2022/08/13 05:46:24;;;;;;;8.50;6.40;;;;;;;29.05;39.43;100480.27;104652;1309;61247;-84
2022/08/13 05:48:58;;;;;;;7.30;6.00;;;;;;;29.06;39.32;100480.15;104494;1309;61202;-84
2022/08/13 05:51:25;;;;;;;7.80;6.80;;;;;;;29.07;39.46;100478.66;104584;1308;74743;-82
2022/08/13 05:53:54;;;;;;;8.30;6.40;;;;;;;29.07;39.44;100479.55;104600;1309;61288;-83
2022/08/13 05:56:24;;;;;;;7.70;6.50;;;;;;;29.08;39.54;100478.57;104650;1309;61141;-81
2022/08/13 05:58:52;;;;;;;8.00;6.50;;;;;;;29.08;39.54;100479.79;104502;1309;73579;-81
2022/08/13 06:04:10;;;;;;;9.40;6.50;;;;;;;29.09;39.43;100475.54;104549;1308;61317;-81
2022/08/13 06:06:36;;;;;;;8.80;6.60;;;;;;;29.10;39.63;100477.06;104602;1309;61885;-81
2022/08/13 06:09:03;;;;;;;8.40;6.50;;;;;;;29.10;39.85;100479.01;104513;1309;61259;-81
2022/08/13 06:11:31;;;;;;;7.40;6.50;;;;;;;29.11;39.74;100476.19;104351;1309;75745;-81
2022/08/13 06:13:56;;;;;;;7.80;6.40;;;;;;;29.12;39.84;100475.36;104631;1307;61337;-81
2022/08/13 06:16:22;;;;;;;10.30;7.00;;;;;;;29.13;39.68;100473.70;104455;1309;61263;-81
2022/08/13 06:18:48;;;;;;;8.10;6.80;;;;;;;29.14;39.76;100473.95;104590;1307;61294;-82
2022/08/13 06:21:15;;;;;;;7.40;6.50;;;;;;;29.14;39.65;100475.34;104491;1308;61301;-82
2022/08/13 06:23:42;;;;;;;8.60;6.90;;;;;;;29.15;39.61;100478.12;104515;1309;61403;-80
2022/08/13 06:26:12;;;;;;;9.40;6.70;;;;;;;29.16;40.09;100475.13;104450;1309;61307;-81
2022/08/13 06:28:39;;;;;;;7.80;6.50;;;;;;;29.16;39.72;100473.81;104486;1309;72800;-81
2022/08/13 06:31:06;;;;;;;8.10;7.20;;;;;;;29.17;40.06;100474.24;104500;1309;74759;-81
2022/08/13 06:33:34;;;;;;;8.00;6.90;;;;;;;29.18;39.73;100472.95;104533;1308;61316;-81
2022/08/13 06:36:05;;;;;;;8.60;7.40;;;;;;;29.18;39.85;100470.87;104486;1309;61381;-82
2022/08/13 06:38:36;;;;;;;7.90;6.50;;;;;;;29.18;40.05;100472.67;104290;1309;71443;-82
2022/08/13 06:41:04;;;;;;;8.30;6.50;;;;;;;29.19;39.88;100471.52;104510;1308;74605;-81
2022/08/13 06:43:35;;;;;;;8.50;6.60;;;;;;;29.20;40.02;100473.46;104547;1309;61279;-82
2022/08/13 06:46:03;;;;;;;8.20;6.90;;;;;;;29.20;40.01;100468.36;104595;1308;61519;-82
2022/08/13 06:48:29;;;;;;;8.70;6.60;;;;;;;29.20;39.86;100465.75;104475;1309;72836;-81
2022/08/13 06:50:55;;;;;;;8.30;6.80;;;;;;;29.20;40.12;100465.92;104552;1309;61419;-82
2022/08/13 06:53:21;;;;;;;9.30;6.90;;;;;;;29.21;40.00;100467.10;104489;1309;61196;-81
2022/08/13 06:55:48;;;;;;;8.70;7.10;;;;;;;29.21;40.13;100465.81;104512;1309;59307;-82
2022/08/13 06:58:14;;;;;;;8.10;7.10;;;;;;;29.21;39.97;100463.27;104471;1309;61249;-82
2022/08/13 07:00:41;;;;;;;8.10;7.10;;;;;;;29.22;40.19;100463.40;104539;1308;61253;-81
2022/08/13 07:03:07;;;;;;;8.20;6.90;;;;;;;29.22;40.46;100466.98;104493;1309;61163;-81
2022/08/13 07:05:41;;;;;;;7.70;6.70;;;;;;;29.22;40.03;100464.08;104488;1309;61336;-80
2022/08/13 07:08:08;;;;;;;8.60;7.10;;;;;;;29.23;40.24;100465.14;104576;1309;72712;-81
2022/08/13 07:10:36;;;;;;;7.50;6.60;;;;;;;29.23;40.24;100468.36;104520;1309;75810;-81
2022/08/13 07:13:04;;;;;;;7.50;6.70;;;;;;;29.23;40.23;100467.48;104484;1309;61266;-82
2022/08/13 07:15:30;;;;;;;7.70;6.70;;;;;;;29.23;40.27;100467.98;104509;1309;61433;-82
2022/08/13 07:17:56;;;;;;;7.80;6.90;;;;;;;29.23;40.20;100466.54;104499;1309;61286;-82
2022/08/13 07:20:23;;;;;;;8.80;6.70;;;;;;;29.24;40.48;100465.91;104480;1309;61156;-81
2022/08/13 07:22:49;;;;;;;8.10;6.80;;;;;;;29.24;40.41;100465.38;104555;1309;61262;-80
2022/08/13 07:25:15;;;;;;;8.20;6.80;;;;;;;29.24;40.40;100462.79;104506;1309;61463;-81
2022/08/13 07:27:41;;;;;;;9.30;7.30;;;;;;;29.24;40.17;100460.98;104451;1309;61227;-82
2022/08/13 07:30:08;;;;;;;7.20;6.20;;;;;;;29.25;40.49;100462.73;104526;1309;61295;-81
2022/08/13 07:32:37;;;;;;;9.40;6.70;;;;;;;29.25;40.30;100454.20;104474;1309;61277;-81
2022/08/13 07:35:04;;;;;;;7.20;6.40;;;;;;;29.25;40.47;100451.14;104527;1309;61246;-81
2022/08/13 07:37:30;;;;;;;8.10;7.30;;;;;;;29.25;40.38;100454.16;104446;1309;72701;-81
2022/08/13 07:39:56;;;;;;;9.50;7.20;;;;;;;29.25;40.53;100450.36;104557;1309;61263;-81
2022/08/13 07:42:22;;;;;;;9.00;7.30;;;;;;;29.25;40.31;100447.81;104508;1309;61398;-81
2022/08/13 07:44:52;;;;;;;8.60;6.70;;;;;;;29.26;40.59;100447.41;104508;1309;61387;-81
2022/08/13 07:47:19;;;;;;;7.50;6.60;;;;;;;29.26;40.54;100439.06;104556;1308;73043;-81
2022/08/13 07:49:46;;;;;;;8.00;7.00;;;;;;;29.26;40.54;100439.05;104464;1309;75679;-81
2022/08/13 07:52:13;;;;;;;9.00;6.80;;;;;;;29.26;40.40;100434.91;104552;1309;61299;-81
2022/08/13 07:54:44;;;;;;;7.80;7.00;;;;;;;29.26;40.75;100430.36;104474;1309;61687;-81
2022/08/13 07:57:10;;;;;;;7.80;6.80;;;;;;;29.26;40.46;100432.67;104469;1309;75166;-81
2022/08/13 07:59:37;;;;;;;7.60;6.60;;;;;;;29.26;40.47;100431.24;104477;1309;61249;-81
2022/08/13 08:02:05;;;;;;;8.40;6.80;;;;;;;29.27;40.55;100426.83;104477;1309;61836;-81
2022/08/13 08:04:34;;;;;;;8.10;7.20;;;;;;;29.27;40.65;100426.30;104553;1309;61156;-81
2022/08/13 08:07:01;;;;;;;;;;;;;;;29.27;40.32;100427.92;104473;1309;72658;-81
2022/08/13 08:09:29;;;;;;;8.70;7.20;;;;;;;29.25;40.53;100422.30;104515;1309;75072;-81
2022/08/13 08:14:41;;;;;;;8.80;6.80;;;;;;;29.26;40.56;100415.50;104526;1309;61277;-81
2022/08/13 08:17:11;;;;;;;7.80;6.70;;;;;;;29.26;40.56;100412.61;104592;1309;61221;-81
2022/08/13 08:19:38;;;;;;;8.90;6.90;;;;;;;29.26;40.58;100418.56;104557;1309;75645;-82
2022/08/13 08:22:04;;;;;;;9.30;7.00;;;;;;;29.26;40.63;100413.51;104488;1309;61405;-82
2022/08/13 08:24:32;;;;;;;9.20;7.00;;;;;;;29.26;40.44;100408.96;104465;1309;61383;-82
2022/08/13 08:27:04;;;;;;;8.10;6.90;;;;;;;29.26;40.40;100408.38;104499;1309;73330;-82
2022/08/13 08:29:31;;;;;;;8.70;6.60;;;;;;;29.26;40.56;100404.23;104524;1309;75861;-82
2022/08/13 08:31:59;;;;;;;9.00;6.60;;;;;;;29.26;40.61;100402.95;104517;1309;61137;-82
2022/08/13 08:34:25;;;;;;;8.50;6.90;;;;;;;29.27;40.60;100401.48;104490;1309;61511;-81
2022/08/13 08:36:53;;;;;;;8.10;6.90;;;;;;;29.27;40.69;100397.47;104516;1309;61131;-81
2022/08/13 08:44:48;;;;;;;8.40;6.90;;;;;;;29.27;40.49;100390.20;104507;1308;61179;-81
2022/08/13 08:47:13;;;;;;;8.10;6.60;;;;;;;29.27;40.49;100388.23;104513;1309;61307;-81
2022/08/13 08:49:39;;;;;;;7.60;6.80;;;;;;;29.27;40.64;100382.05;104511;1309;61380;-81
2022/08/13 08:52:05;;;;;;;9.20;6.90;;;;;;;29.27;40.52;100379.50;104511;1309;61352;-81
2022/08/13 08:54:31;;;;;;;9.60;7.10;;;;;;;29.27;40.46;100378.96;104494;1309;62503;-81
2022/08/13 08:56:57;;;;;;;8.00;7.10;;;;;;;29.27;40.66;100374.30;104577;1309;61282;-80
2022/08/13 08:59:32;;;;;;;7.60;6.70;;;;;;;29.26;40.82;100365.26;104484;1309;72714;-80
2022/08/13 09:01:57;;;;;;;8.50;6.80;;;;;;;29.27;40.65;100361.98;104448;1309;75763;-81
2022/08/13 09:04:28;;;;;;;8.90;6.60;;;;;;;29.26;40.55;100360.54;104546;1308;61270;-81
2022/08/13 09:06:55;;;;;;;7.40;6.30;;;;;;;29.26;40.67;100358.36;104494;1309;61505;-81
2022/08/13 09:09:21;;;;;;;8.80;6.60;;;;;;;29.26;40.77;100361.63;104523;1309;73838;-82
2022/08/13 09:11:47;;;;;;;7.30;6.20;;;;;;;29.26;40.82;100348.95;104507;1309;61277;-82
2022/08/13 09:14:13;;;;;;;8.00;6.70;;;;;;;29.26;40.83;100346.57;104459;1309;61358;-82
2022/08/13 09:16:39;;;;;;;7.90;6.60;;;;;;;29.27;40.77;100338.55;104450;1309;61206;-80
2022/08/13 09:19:06;;;;;;;8.10;6.90;;;;;;;29.27;40.86;100336.79;104516;1309;61157;-82
2022/08/13 09:21:36;;;;;;;8.60;6.90;;;;;;;29.26;40.82;100341.30;104473;1309;61324;-81
2022/08/13 09:24:01;;;;;;;7.80;6.70;;;;;;;29.26;40.89;100339.20;104579;1309;61778;-81
2022/08/13 09:26:28;;;;;;;7.40;6.60;;;;;;;29.26;40.79;100338.83;104547;1309;61145;-81
2022/08/13 09:28:55;;;;;;;7.30;6.50;;;;;;;29.26;40.80;100334.08;104343;1309;61387;-81
2022/08/13 09:31:23;;;;;;;8.20;7.00;;;;;;;29.27;40.73;100329.69;104534;1309;74674;-81
2022/08/13 09:33:49;;;;;;;7.80;6.60;;;;;;;29.27;40.65;100326.27;104507;1309;61291;-81
2022/08/13 09:36:14;;;;;;;7.30;6.50;;;;;;;29.26;40.79;100321.23;104535;1309;61252;-81
2022/08/13 09:38:40;;;;;;;8.30;6.60;;;;;;;29.27;40.84;100318.29;104430;1308;61309;-81
2022/08/13 09:41:33;;;;;;;8.30;7.10;;;;;;;29.27;40.92;100324.59;104441;1308;61446;-81
2022/08/13 09:43:59;;;;;;;7.70;6.60;;;;;;;29.27;41.08;100321.33;104293;1309;61413;-81
2022/08/13 09:46:24;;;;;;;7.10;6.40;;;;;;;29.26;40.75;100315.59;104284;1309;61351;-81
2022/08/13 09:48:51;;;;;;;7.70;6.80;;;;;;;29.27;40.83;100315.88;104419;1309;61263;-81
2022/08/13 09:51:18;;;;;;;7.70;6.20;;;;;;;29.28;40.81;100318.20;104506;1309;61285;-82
2022/08/13 09:53:47;;;;;;;7.50;6.60;;;;;;;29.27;40.97;100314.06;104440;1309;61417;-84
2022/08/13 09:56:17;;;;;;;7.10;6.40;;;;;;;29.28;40.91;100312.20;104517;1309;61396;-82
2022/08/13 09:58:49;;;;;;;7.00;6.30;;;;;;;29.27;40.83;100308.27;104509;1309;72659;-82
2022/08/13 10:01:15;;;;;;;8.70;7.10;;;;;;;29.27;40.75;100303.05;104454;1309;75622;-82
2022/08/13 10:03:42;;;;;;;8.50;6.80;;;;;;;29.28;40.99;100300.09;104463;1309;61415;-82
2022/08/13 10:06:09;;;;;;;8.60;6.70;;;;;;;29.27;40.78;100301.17;104466;1309;61268;-81
2022/08/13 10:08:35;;;;;;;7.20;6.30;;;;;;;29.28;40.73;100295.70;104499;1309;72919;-81
2022/08/13 10:11:01;;;;;;;8.50;6.90;;;;;;;29.27;40.98;100297.73;104520;1309;61385;-82
2022/08/13 10:13:26;;;;;;;8.80;7.00;;;;;;;29.27;40.85;100293.59;104550;1309;61296;-82
2022/08/13 10:15:52;;;;;;;7.90;6.60;;;;;;;29.27;40.88;100287.80;104593;1309;61361;-82
2022/08/13 10:18:19;;;;;;;7.90;6.60;;;;;;;29.27;40.93;100282.56;104597;1308;61384;-82
2022/08/13 10:20:45;;;;;;;8.70;7.10;;;;;;;29.26;40.71;100282.80;104531;1309;61174;-82
2022/08/13 10:23:15;;;;;;;7.20;6.40;;;;;;;29.27;40.69;100281.85;104550;1308;61842;-82
2022/08/13 10:25:42;;;;;;;7.40;6.40;;;;;;;29.27;41.04;100280.75;104466;1309;61316;-82
2022/08/13 10:28:20;;;;;;;8.00;6.60;;;;;;;29.27;40.90;100285.48;104509;1309;73699;-83
2022/08/13 10:30:46;;;;;;;8.90;7.00;;;;;;;29.27;40.99;100280.41;104528;1309;74710;-83
2022/08/13 10:33:13;;;;;;;7.30;6.40;;;;;;;29.25;40.67;100280.00;104535;1308;61374;-81
2022/08/13 10:35:39;;;;;;;7.50;6.50;;;;;;;29.26;40.95;100274.88;104519;1309;61693;-82
2022/08/13 10:38:07;;;;;;;7.80;6.90;;;;;;;29.26;40.77;100268.73;104541;1309;61346;-81
2022/08/13 10:40:33;;;;;;;6.90;6.20;;;;;;;29.25;40.85;100271.09;104535;1309;74890;-82
2022/08/13 10:43:00;;;;;;;7.20;6.00;;;;;;;29.25;40.83;100272.05;104538;1309;61244;-83
2022/08/13 10:45:29;;;;;;;6.90;6.20;;;;;;;29.25;40.81;100266.40;104532;1309;61357;-82
2022/08/13 10:47:55;;;;;;;8.20;6.50;;;;;;;29.26;40.69;100266.38;104525;1309;72858;-82
2022/08/13 10:50:26;;;;;;;7.60;5.90;;;;;;;29.25;40.89;100264.09;104561;1309;61381;-82
2022/08/13 10:52:52;;;;;;;7.40;6.50;;;;;;;29.25;40.84;100267.70;104568;1309;61767;-82
2022/08/13 10:55:18;;;;;;;7.20;6.10;;;;;;;29.25;40.66;100265.52;104528;1309;62068;-82
2022/08/13 10:57:45;;;;;;;8.00;6.30;;;;;;;29.25;40.76;100256.08;104451;1309;61472;-83
2022/08/13 11:00:13;;;;;;;7.60;6.60;;;;;;;29.26;40.76;100250.23;104563;1309;61280;-83
2022/08/13 11:02:38;;;;;;;6.70;6.00;;;;;;;29.26;40.68;100249.52;104506;1309;61433;-83
2022/08/13 11:05:08;;;;;;;9.40;6.80;;;;;;;29.26;40.65;100248.95;104591;1309;61293;-83
2022/08/13 11:07:34;;;;;;;8.70;6.20;;;;;;;29.25;40.62;100246.84;104580;1309;72744;-83
2022/08/13 11:10:01;;;;;;;7.10;6.40;;;;;;;29.26;40.77;100239.91;104595;1308;61262;-83
2022/08/13 11:12:26;;;;;;;7.00;6.20;;;;;;;29.26;40.42;100240.08;104482;1309;61220;-83
2022/08/13 11:14:53;;;;;;;7.50;6.30;;;;;;;29.26;40.66;100240.80;104510;1309;61310;-83
2022/08/13 11:17:19;;;;;;;8.40;6.40;;;;;;;29.26;40.42;100240.23;104512;1309;61288;-82
2022/08/13 11:19:48;;;;;;;8.70;6.70;;;;;;;29.26;40.64;100237.87;104537;1309;61282;-82
2022/08/13 11:22:15;;;;;;;7.30;6.20;;;;;;;29.26;40.77;100236.98;104587;1309;61254;-82
2022/08/13 11:24:40;;;;;;;7.50;6.50;;;;;;;29.25;40.72;100233.22;104516;1309;61314;-81
2022/08/13 11:27:06;;;;;;;7.10;6.30;;;;;;;29.25;40.48;100232.67;104538;1309;61280;-82
2022/08/13 11:29:31;;;;;;;7.00;6.30;;;;;;;29.25;40.44;100233.26;104548;1309;61405;-82
2022/08/13 11:31:57;;;;;;;7.10;6.40;;;;;;;29.25;40.52;100230.39;104547;1309;61368;-82
2022/08/13 11:34:24;;;;;;;7.30;6.40;;;;;;;29.25;40.57;100230.74;104597;1309;61325;-82
2022/08/13 11:36:50;;;;;;;8.00;6.70;;;;;;;29.25;40.72;100228.22;104582;1309;61605;-84